createdAt,value
2018-02-03T00:00:30.478Z,1004.13
2018-02-03T00:01:30.434Z,1004.15
2018-02-03T00:02:30.383Z,1004.16
2018-02-03T00:03:30.337Z,1004.14
2018-02-03T00:04:30.296Z,1004.20
2018-02-03T00:05:30.245Z,1004.22
2018-02-03T00:06:30.195Z,1004.20
2018-02-03T00:07:30.151Z,1004.21
2018-02-03T00:08:30.105Z,1004.19
2018-02-03T00:09:30.056Z,1004.19
2018-02-03T00:10:30.009Z,1004.17
2018-02-03T00:11:29.959Z,1004.16
2018-02-03T00:12:29.912Z,1004.14
2018-02-03T00:13:29.862Z,1004.14
2018-02-03T00:14:29.820Z,1004.13
2018-02-03T00:15:29.774Z,1004.14
2018-02-03T00:16:29.728Z,1004.11
2018-02-03T00:17:29.678Z,1004.16
2018-02-03T00:18:29.627Z,1004.11
2018-02-03T00:19:29.580Z,1004.13
2018-02-03T00:20:29.603Z,1004.13
2018-02-03T00:21:29.493Z,1004.11
2018-02-03T00:22:29.437Z,1004.14
2018-02-03T00:23:29.390Z,1004.10
2018-02-03T00:24:29.350Z,1004.08
2018-02-03T00:25:29.295Z,1004.10
2018-02-03T00:26:29.248Z,1004.08
2018-02-03T00:27:29.251Z,1004.06
2018-02-03T00:28:29.154Z,1004.07
2018-02-03T00:29:29.109Z,1004.09
2018-02-03T00:30:29.060Z,1004.08
2018-02-03T00:31:29.014Z,1004.09
2018-02-03T00:32:28.963Z,1004.06
2018-02-03T00:33:28.915Z,1004.09
2018-02-03T00:34:28.868Z,1004.10
2018-02-03T00:35:28.822Z,1004.11
2018-02-03T00:36:28.796Z,1004.06
2018-02-03T00:37:28.731Z,1004.09
2018-02-03T00:38:28.683Z,1004.05
2018-02-03T00:39:28.638Z,1004.06
2018-02-03T00:40:28.587Z,1004.09
2018-02-03T00:41:28.541Z,1004.07
2018-02-03T00:42:28.489Z,1004.07
2018-02-03T00:43:28.442Z,1004.03
2018-02-03T00:44:28.398Z,1004.05
2018-02-03T00:45:28.349Z,1004.07
2018-02-03T00:46:28.303Z,1004.05
2018-02-03T00:47:28.254Z,1004.09
2018-02-03T00:48:28.205Z,1004.08
2018-02-03T00:49:28.163Z,1004.09
2018-02-03T00:50:28.110Z,1004.12
2018-02-03T00:51:28.077Z,1004.13
2018-02-03T00:52:28.018Z,1004.13
2018-02-03T00:53:27.967Z,1004.15
2018-02-03T00:54:27.921Z,1004.15
2018-02-03T00:55:27.879Z,1004.14
2018-02-03T00:56:27.827Z,1004.16
2018-02-03T00:57:27.784Z,1004.14
2018-02-03T00:58:27.734Z,1004.13
2018-02-03T00:59:27.686Z,1004.11
2018-02-03T01:00:27.689Z,1004.11
2018-02-03T01:01:27.588Z,1004.12
2018-02-03T01:02:27.540Z,1004.11
2018-02-03T01:03:27.493Z,1004.13
2018-02-03T01:04:27.446Z,1004.11
2018-02-03T01:05:27.401Z,1004.09
2018-02-03T01:06:27.358Z,1004.11
2018-02-03T01:07:27.306Z,1004.08
2018-02-03T01:08:27.262Z,1004.11
2018-02-03T01:09:27.209Z,1004.12
2018-02-03T01:10:27.164Z,1004.13
2018-02-03T01:11:27.114Z,1004.10
2018-02-03T01:12:27.068Z,1004.13
2018-02-03T01:13:27.017Z,1004.14
2018-02-03T01:14:26.970Z,1004.09
2018-02-03T01:15:26.924Z,1004.10
2018-02-03T01:16:26.896Z,1004.11
2018-02-03T01:17:26.829Z,1004.10
2018-02-03T01:18:26.783Z,1004.16
2018-02-03T01:19:26.739Z,1004.17
2018-02-03T01:20:26.688Z,1004.19
2018-02-03T01:21:26.641Z,1004.16
2018-02-03T01:22:26.593Z,1004.19
2018-02-03T01:23:26.546Z,1004.18
2018-02-03T01:24:26.497Z,1004.21
2018-02-03T01:25:26.448Z,1004.19
2018-02-03T01:26:26.404Z,1004.17
2018-02-03T01:27:26.360Z,1004.14
2018-02-03T01:28:26.311Z,1004.19
2018-02-03T01:29:26.262Z,1004.15
2018-02-03T01:30:26.212Z,1004.14
2018-02-03T01:31:26.167Z,1004.13
2018-02-03T01:32:26.122Z,1004.15
2018-02-03T01:33:26.071Z,1004.09
2018-02-03T01:34:26.035Z,1004.07
2018-02-03T01:35:25.974Z,1004.11
2018-02-03T01:36:25.926Z,1004.14
2018-02-03T01:37:25.880Z,1004.10
2018-02-03T01:38:25.836Z,1004.11
2018-02-03T01:39:25.784Z,1004.09
2018-02-03T01:40:25.745Z,1004.09
2018-02-03T01:41:25.690Z,1004.06
2018-02-03T01:42:25.642Z,1004.09
2018-02-03T01:43:25.594Z,1004.07
2018-02-03T01:44:25.551Z,1004.05
2018-02-03T01:45:25.500Z,1004.07
2018-02-03T01:46:25.454Z,1004.05
2018-02-03T01:47:25.407Z,1004.06
2018-02-03T01:48:25.357Z,1004.09
2018-02-03T01:49:25.316Z,1004.09
2018-02-03T01:50:25.265Z,1004.13
2018-02-03T01:51:25.218Z,1004.12
2018-02-03T01:52:25.169Z,1004.13
2018-02-03T01:53:25.174Z,1004.14
2018-02-03T01:54:25.073Z,1004.17
2018-02-03T01:55:25.026Z,1004.13
2018-02-03T01:56:24.978Z,1004.15
2018-02-03T01:57:24.931Z,1004.19
2018-02-03T01:58:24.884Z,1004.21
2018-02-03T01:59:24.840Z,1004.19
2018-02-03T02:00:24.830Z,1004.19
2018-02-03T02:01:24.741Z,1004.17
2018-02-03T02:02:24.692Z,1004.18
2018-02-03T02:03:24.648Z,1004.20
2018-02-03T02:04:24.599Z,1004.22
2018-02-03T02:05:24.553Z,1004.23
2018-02-03T02:06:24.505Z,1004.28
2018-02-03T02:07:24.456Z,1004.24
2018-02-03T02:08:24.410Z,1004.25
2018-02-03T02:09:24.359Z,1004.22
2018-02-03T02:10:24.323Z,1004.25
2018-02-03T02:11:24.264Z,1004.23
2018-02-03T02:12:24.220Z,1004.24
2018-02-03T02:13:24.173Z,1004.29
2018-02-03T02:14:24.122Z,1004.28
2018-02-03T02:15:24.079Z,1004.25
2018-02-03T02:16:24.029Z,1004.26
2018-02-03T02:17:23.979Z,1004.29
2018-02-03T02:18:23.935Z,1004.30
2018-02-03T02:19:23.884Z,1004.25
2018-02-03T02:20:23.837Z,1004.27
2018-02-03T02:21:23.791Z,1004.24
2018-02-03T02:22:23.746Z,1004.27
2018-02-03T02:23:23.709Z,1004.21
2018-02-03T02:24:23.653Z,1004.21
2018-02-03T02:25:23.598Z,1004.21
2018-02-03T02:26:23.553Z,1004.16
2018-02-03T02:27:23.504Z,1004.19
2018-02-03T02:28:23.460Z,1004.18
2018-02-03T02:29:23.407Z,1004.21
2018-02-03T02:30:23.360Z,1004.18
2018-02-03T02:31:23.316Z,1004.19
2018-02-03T02:32:23.265Z,1004.17
2018-02-03T02:33:23.218Z,1004.17
2018-02-03T02:34:23.173Z,1004.18
2018-02-03T02:35:23.125Z,1004.19
2018-02-03T02:36:23.080Z,1004.22
2018-02-03T02:37:23.030Z,1004.17
2018-02-03T02:38:22.982Z,1004.23
2018-02-03T02:39:22.932Z,1004.20
2018-02-03T02:40:22.886Z,1004.20
2018-02-03T02:41:22.836Z,1004.22
2018-02-03T02:42:22.796Z,1004.23
2018-02-03T02:43:22.805Z,1004.24
2018-02-03T02:44:22.697Z,1004.22
2018-02-03T02:45:22.650Z,1004.23
2018-02-03T02:46:22.600Z,1004.22
2018-02-03T02:47:22.553Z,1004.21
2018-02-03T02:48:22.509Z,1004.17
2018-02-03T02:49:22.460Z,1004.19
2018-02-03T02:50:22.411Z,1004.21
2018-02-03T02:51:22.361Z,1004.21
2018-02-03T02:52:22.311Z,1004.23
2018-02-03T02:53:22.264Z,1004.22
2018-02-03T02:54:22.225Z,1004.23
2018-02-03T02:55:22.171Z,1004.21
2018-02-03T02:56:22.125Z,1004.25
2018-02-03T02:57:22.075Z,1004.29
2018-02-03T02:58:22.038Z,1004.26
2018-02-03T02:59:21.979Z,1004.24
2018-02-03T03:00:21.930Z,1004.26
2018-02-03T03:01:21.888Z,1004.23
2018-02-03T03:02:21.837Z,1004.25
2018-02-03T03:03:21.792Z,1004.25
2018-02-03T03:04:21.740Z,1004.24
2018-02-03T03:05:21.694Z,1004.26
2018-02-03T03:06:21.646Z,1004.26
2018-02-03T03:07:21.601Z,1004.28
2018-02-03T03:08:21.550Z,1004.24
2018-02-03T03:09:21.502Z,1004.28
2018-02-03T03:10:21.459Z,1004.26
2018-02-03T03:11:21.409Z,1004.27
2018-02-03T03:12:21.358Z,1004.28
2018-02-03T03:13:21.313Z,1004.29
2018-02-03T03:14:21.267Z,1004.27
2018-02-03T03:15:21.221Z,1004.31
2018-02-03T03:16:21.168Z,1004.24
2018-02-03T03:17:21.124Z,1004.29
2018-02-03T03:18:21.081Z,1004.23
2018-02-03T03:19:21.028Z,1004.24
2018-02-03T03:20:20.979Z,1004.24
2018-02-03T03:21:20.933Z,1004.22
2018-02-03T03:22:20.888Z,1004.24
2018-02-03T03:23:20.838Z,1004.28
2018-02-03T03:24:20.787Z,1004.27
2018-02-03T03:25:20.739Z,1004.26
2018-02-03T03:26:20.691Z,1004.24
2018-02-03T03:27:20.644Z,1004.21
2018-02-03T03:28:20.599Z,1004.23
2018-02-03T03:29:20.548Z,1004.23
2018-02-03T03:30:20.502Z,1004.20
2018-02-03T03:31:20.456Z,1004.20
2018-02-03T03:32:20.404Z,1004.19
2018-02-03T03:33:20.364Z,1004.19
2018-02-03T03:34:20.313Z,1004.22
2018-02-03T03:35:20.268Z,1004.16
2018-02-03T03:36:20.215Z,1004.19
2018-02-03T03:37:20.168Z,1004.19
2018-02-03T03:38:20.124Z,1004.14
2018-02-03T03:39:20.071Z,1004.15
2018-02-03T03:40:20.025Z,1004.15
2018-02-03T03:41:19.979Z,1004.14
2018-02-03T03:42:19.935Z,1004.11
2018-02-03T03:43:19.882Z,1004.14
2018-02-03T03:44:19.834Z,1004.10
2018-02-03T03:45:19.788Z,1004.12
2018-02-03T03:46:19.737Z,1004.11
2018-02-03T03:47:19.693Z,1004.07
2018-02-03T03:48:19.640Z,1004.09
2018-02-03T03:49:19.594Z,1004.06
2018-02-03T03:50:19.548Z,1004.08
2018-02-03T03:51:19.500Z,1004.07
2018-02-03T03:52:19.454Z,1004.11
2018-02-03T03:53:19.404Z,1004.06
2018-02-03T03:54:19.356Z,1004.07
2018-02-03T03:55:19.308Z,1004.04
2018-02-03T03:56:19.261Z,1004.07
2018-02-03T03:57:19.215Z,1004.07
2018-02-03T03:58:19.164Z,1004.04
2018-02-03T03:59:19.118Z,1004.07
2018-02-03T04:00:19.070Z,1004.03
2018-02-03T04:01:19.024Z,1004.02
2018-02-03T04:02:18.976Z,1004.03
2018-02-03T04:03:18.928Z,1004.02
2018-02-03T04:04:18.880Z,1003.98
2018-02-03T04:05:18.830Z,1003.98
2018-02-03T04:06:18.787Z,1003.99
2018-02-03T04:07:18.741Z,1003.98
2018-02-03T04:08:18.693Z,1003.96
2018-02-03T04:09:18.640Z,1003.92
2018-02-03T04:10:18.593Z,1003.93
2018-02-03T04:11:18.547Z,1003.94
2018-02-03T04:12:18.499Z,1003.96
2018-02-03T04:13:18.508Z,1003.96
2018-02-03T04:14:18.404Z,1003.97
2018-02-03T04:15:18.354Z,1003.94
2018-02-03T04:16:18.311Z,1003.91
2018-02-03T04:17:18.261Z,1003.94
2018-02-03T04:18:18.213Z,1003.94
2018-02-03T04:19:18.163Z,1003.90
2018-02-03T04:20:18.117Z,1003.93
2018-02-03T04:21:18.068Z,1003.93
2018-02-03T04:22:18.022Z,1003.95
2018-02-03T04:23:17.974Z,1003.93
2018-02-03T04:24:17.923Z,1003.95
2018-02-03T04:25:17.876Z,1003.90
2018-02-03T04:27:17.782Z,1003.96
2018-02-03T04:28:17.735Z,1003.94
2018-02-03T04:29:17.687Z,1003.88
2018-02-03T04:30:17.638Z,1003.89
2018-02-03T04:31:17.593Z,1003.87
2018-02-03T04:32:18.122Z,1003.86
2018-02-03T04:33:17.493Z,1003.81
2018-02-03T04:34:17.449Z,1003.83
2018-02-03T04:35:17.402Z,1003.82
2018-02-03T04:36:17.353Z,1003.83
2018-02-03T04:37:17.948Z,1003.80
2018-02-03T04:38:17.259Z,1003.81
2018-02-03T04:39:17.211Z,1003.78
2018-02-03T04:40:17.161Z,1003.83
2018-02-03T04:41:17.112Z,1003.77
2018-02-03T04:42:17.065Z,1003.78
2018-02-03T04:43:17.015Z,1003.77
2018-02-03T04:44:16.973Z,1003.74
2018-02-03T04:45:16.924Z,1003.75
2018-02-03T04:46:16.876Z,1003.72
2018-02-03T04:47:16.828Z,1003.74
2018-02-03T04:48:16.778Z,1003.70
2018-02-03T04:49:16.734Z,1003.73
2018-02-03T04:50:16.688Z,1003.76
2018-02-03T04:51:16.635Z,1003.73
2018-02-03T04:52:16.585Z,1003.68
2018-02-03T04:53:16.546Z,1003.69
2018-02-03T04:54:16.492Z,1003.66
2018-02-03T04:55:16.448Z,1003.67
2018-02-03T04:56:16.400Z,1003.58
2018-02-03T04:57:16.350Z,1003.56
2018-02-03T04:58:16.302Z,1003.57
2018-02-03T04:59:16.256Z,1003.57
2018-02-03T05:00:16.226Z,1003.52
2018-02-03T05:01:16.157Z,1003.54
2018-02-03T05:02:16.112Z,1003.48
2018-02-03T05:03:16.064Z,1003.48
2018-02-03T05:04:16.015Z,1003.40
2018-02-03T05:05:15.968Z,1003.37
2018-02-03T05:06:15.919Z,1003.37
2018-02-03T05:07:15.877Z,1003.31
2018-02-03T05:08:15.823Z,1003.33
2018-02-03T05:09:15.776Z,1003.33
2018-02-03T05:10:15.731Z,1003.33
2018-02-03T05:11:15.681Z,1003.34
2018-02-03T05:12:15.632Z,1003.39
2018-02-03T05:13:15.593Z,1003.38
2018-02-03T05:14:15.537Z,1003.36
2018-02-03T05:15:15.493Z,1003.37
2018-02-03T05:16:15.441Z,1003.37
2018-02-03T05:17:15.399Z,1003.36
2018-02-03T05:18:15.347Z,1003.37
2018-02-03T05:19:15.302Z,1003.36
2018-02-03T05:20:15.249Z,1003.35
2018-02-03T05:21:15.207Z,1003.35
2018-02-03T05:22:15.160Z,1003.38
2018-02-03T05:23:15.113Z,1003.39
2018-02-03T05:24:15.061Z,1003.32
2018-02-03T05:25:15.011Z,1003.35
2018-02-03T05:26:14.969Z,1003.33
2018-02-03T05:27:14.927Z,1003.36
2018-02-03T05:28:14.868Z,1003.30
2018-02-03T05:29:14.822Z,1003.31
2018-02-03T05:30:14.773Z,1003.32
2018-02-03T05:31:14.724Z,1003.32
2018-02-03T05:32:14.674Z,1003.38
2018-02-03T05:33:14.628Z,1003.42
2018-02-03T05:34:14.587Z,1003.38
2018-02-03T05:35:14.536Z,1003.39
2018-02-03T05:36:14.491Z,1003.37
2018-02-03T05:37:14.464Z,1003.36
2018-02-03T05:38:14.397Z,1003.35
2018-02-03T05:39:14.346Z,1003.36
2018-02-03T05:40:14.294Z,1003.37
2018-02-03T05:41:14.246Z,1003.35
2018-02-03T05:42:14.203Z,1003.35
2018-02-03T05:43:14.152Z,1003.35
2018-02-03T05:44:14.104Z,1003.34
2018-02-03T05:45:14.061Z,1003.34
2018-02-03T05:46:14.007Z,1003.32
2018-02-03T05:47:13.997Z,1003.33
2018-02-03T05:48:13.913Z,1003.36
2018-02-03T05:49:13.864Z,1003.34
2018-02-03T05:50:13.818Z,1003.35
2018-02-03T05:51:13.770Z,1003.37
2018-02-03T05:52:13.721Z,1003.34
2018-02-03T05:53:13.674Z,1003.36
2018-02-03T05:54:13.622Z,1003.33
2018-02-03T05:55:13.575Z,1003.31
2018-02-03T05:56:13.531Z,1003.29
2018-02-03T05:57:13.487Z,1003.30
2018-02-03T05:58:13.434Z,1003.25
2018-02-03T05:59:13.384Z,1003.29
2018-02-03T06:00:13.337Z,1003.32
2018-02-03T06:01:13.288Z,1003.26
2018-02-03T06:02:13.246Z,1003.26
2018-02-03T06:03:13.214Z,1003.27
2018-02-03T06:04:13.146Z,1003.28
2018-02-03T06:05:13.099Z,1003.27
2018-02-03T06:06:13.048Z,1003.28
2018-02-03T06:07:13.005Z,1003.26
2018-02-03T06:08:12.951Z,1003.28
2018-02-03T06:09:12.906Z,1003.28
2018-02-03T06:10:12.859Z,1003.30
2018-02-03T06:11:12.821Z,1003.26
2018-02-03T06:12:12.762Z,1003.28
2018-02-03T06:13:12.714Z,1003.28
2018-02-03T06:14:12.666Z,1003.26
2018-02-03T06:15:12.617Z,1003.26
2018-02-03T06:16:12.572Z,1003.26
2018-02-03T06:17:12.525Z,1003.30
2018-02-03T06:18:12.475Z,1003.29
2018-02-03T06:19:12.424Z,1003.29
2018-02-03T06:20:12.377Z,1003.26
2018-02-03T06:21:12.330Z,1003.29
2018-02-03T06:22:12.283Z,1003.28
2018-02-03T06:23:12.237Z,1003.28
2018-02-03T06:24:12.185Z,1003.26
2018-02-03T06:25:12.139Z,1003.22
2018-02-03T06:26:12.086Z,1003.24
2018-02-03T06:27:12.040Z,1003.25
2018-02-03T06:28:11.992Z,1003.24
2018-02-03T06:29:11.947Z,1003.26
2018-02-03T06:30:11.902Z,1003.23
2018-02-03T06:31:11.847Z,1003.22
2018-02-03T06:32:11.800Z,1003.20
2018-02-03T06:33:11.753Z,1003.18
2018-02-03T06:34:11.707Z,1003.15
2018-02-03T06:35:11.656Z,1003.12
2018-02-03T06:36:11.607Z,1003.11
2018-02-03T06:37:11.561Z,1003.12
2018-02-03T06:38:11.513Z,1003.10
2018-02-03T06:39:11.464Z,1003.12
2018-02-03T06:40:11.415Z,1003.14
2018-02-03T06:41:11.370Z,1003.10
2018-02-03T06:42:11.323Z,1003.09
2018-02-03T06:43:11.272Z,1003.11
2018-02-03T06:44:11.230Z,1003.12
2018-02-03T06:45:11.181Z,1003.10
2018-02-03T06:46:11.129Z,1003.08
2018-02-03T06:47:11.080Z,1003.13
2018-02-03T06:48:11.032Z,1003.10
2018-02-03T06:49:10.981Z,1003.12
2018-02-03T06:50:10.935Z,1003.11
2018-02-03T06:51:10.894Z,1003.12
2018-02-03T06:52:10.839Z,1003.15
2018-02-03T06:53:10.791Z,1003.18
2018-02-03T06:54:10.742Z,1003.19
2018-02-03T06:55:10.697Z,1003.14
2018-02-03T06:56:10.648Z,1003.21
2018-02-03T06:57:10.598Z,1003.22
2018-02-03T06:58:10.555Z,1003.24
2018-02-03T06:59:10.501Z,1003.25
2018-02-03T07:00:11.555Z,1003.27
2018-02-03T07:01:10.404Z,1003.30
2018-02-03T07:02:10.359Z,1003.40
2018-02-03T07:03:10.310Z,1003.37
2018-02-03T07:04:10.264Z,1003.41
2018-02-03T07:05:10.215Z,1003.42
2018-02-03T07:06:10.166Z,1003.42
2018-02-03T07:07:10.116Z,1003.44
2018-02-03T07:08:10.089Z,1003.43
2018-02-03T07:09:10.026Z,1003.44
2018-02-03T07:10:09.975Z,1003.41
2018-02-03T07:11:09.929Z,1003.43
2018-02-03T07:12:09.876Z,1003.38
2018-02-03T07:13:09.833Z,1003.35
2018-02-03T07:14:09.782Z,1003.36
2018-02-03T07:15:09.740Z,1003.28
2018-02-03T07:16:09.686Z,1003.32
2018-02-03T07:17:09.636Z,1003.34
2018-02-03T07:18:09.590Z,1003.27
2018-02-03T07:19:09.542Z,1003.27
2018-02-03T07:20:09.495Z,1003.28
2018-02-03T07:21:09.447Z,1003.25
2018-02-03T07:22:09.402Z,1003.27
2018-02-03T07:23:09.355Z,1003.24
2018-02-03T07:24:09.301Z,1003.26
2018-02-03T07:25:09.256Z,1003.26
2018-02-03T07:26:09.207Z,1003.27
2018-02-03T07:27:09.158Z,1003.22
2018-02-03T07:28:09.115Z,1003.21
2018-02-03T07:29:09.067Z,1003.21
2018-02-03T07:30:09.019Z,1003.21
2018-02-03T07:31:08.965Z,1003.19
2018-02-03T07:32:08.920Z,1003.25
2018-02-03T07:33:08.871Z,1003.27
2018-02-03T07:34:08.830Z,1003.27
2018-02-03T07:35:08.774Z,1003.27
2018-02-03T07:36:08.726Z,1003.30
2018-02-03T07:37:08.676Z,1003.35
2018-02-03T07:38:08.636Z,1003.32
2018-02-03T07:39:08.584Z,1003.38
2018-02-03T07:40:08.530Z,1003.37
2018-02-03T07:41:08.486Z,1003.37
2018-02-03T07:42:08.443Z,1003.39
2018-02-03T07:43:08.390Z,1003.38
2018-02-03T07:44:08.346Z,1003.37
2018-02-03T07:45:08.294Z,1003.41
2018-02-03T07:46:08.243Z,1003.35
2018-02-03T07:47:08.200Z,1003.40
2018-02-03T07:48:08.147Z,1003.36
2018-02-03T07:49:08.101Z,1003.43
2018-02-03T07:50:08.054Z,1003.42
2018-02-03T07:51:08.004Z,1003.41
2018-02-03T07:52:07.956Z,1003.39
2018-02-03T07:53:07.910Z,1003.40
2018-02-03T07:54:07.861Z,1003.38
2018-02-03T07:55:07.849Z,1003.41
2018-02-03T07:56:07.770Z,1003.39
2018-02-03T07:57:07.722Z,1003.39
2018-02-03T07:58:07.707Z,1003.41
2018-02-03T07:59:07.624Z,1003.41
2018-02-03T08:00:07.577Z,1003.40
2018-02-03T08:01:12.131Z,1003.37
2018-02-03T08:02:07.476Z,1003.34
2018-02-03T08:03:07.429Z,1003.22
2018-02-03T08:04:07.383Z,1003.30
2018-02-03T08:05:07.335Z,1003.35
2018-02-03T08:06:07.290Z,1003.31
2018-02-03T08:07:07.246Z,1003.31
2018-02-03T08:08:07.190Z,1003.24
2018-02-03T08:09:07.170Z,1003.31
2018-02-03T08:10:07.094Z,1003.29
2018-02-03T08:11:07.045Z,1003.30
2018-02-03T08:12:06.999Z,1003.29
2018-02-03T08:13:06.987Z,1003.33
2018-02-03T08:14:06.903Z,1003.32
2018-02-03T08:15:06.858Z,1003.30
2018-02-03T08:16:06.807Z,1003.28
2018-02-03T08:17:06.767Z,1003.31
2018-02-03T08:18:06.738Z,1003.28
2018-02-03T08:19:06.666Z,1003.31
2018-02-03T08:20:06.613Z,1003.28
2018-02-03T08:21:06.567Z,1003.23
2018-02-03T08:22:06.519Z,1003.26
2018-02-03T08:23:06.473Z,1003.31
2018-02-03T08:24:06.457Z,1003.25
2018-02-03T08:25:06.379Z,1003.24
2018-02-03T08:26:06.329Z,1003.27
2018-02-03T08:27:06.284Z,1003.29
2018-02-03T08:28:06.233Z,1003.26
2018-02-03T08:29:06.184Z,1003.23
2018-02-03T08:30:06.138Z,1003.23
2018-02-03T08:31:06.088Z,1003.27
2018-02-03T08:32:06.041Z,1003.28
2018-02-03T08:33:05.995Z,1003.27
2018-02-03T08:34:05.947Z,1003.25
2018-02-03T08:35:05.900Z,1003.27
2018-02-03T08:36:05.850Z,1003.28
2018-02-03T08:37:05.804Z,1003.28
2018-02-03T08:38:05.762Z,1003.28
2018-02-03T08:39:05.706Z,1003.21
2018-02-03T08:40:05.662Z,1003.21
2018-02-03T08:41:05.613Z,1003.21
2018-02-03T08:42:05.563Z,1003.21
2018-02-03T08:43:05.519Z,1003.16
2018-02-03T08:44:05.494Z,1003.16
2018-02-03T08:46:05.373Z,1003.12
2018-02-03T08:47:05.327Z,1003.16
2018-02-03T08:48:05.279Z,1003.13
2018-02-03T08:49:05.230Z,1003.13
2018-02-03T08:50:05.182Z,1003.13
2018-02-03T08:51:05.138Z,1003.12
2018-02-03T08:52:05.092Z,1003.11
2018-02-03T08:53:05.040Z,1003.14
2018-02-03T08:54:04.991Z,1003.13
2018-02-03T08:55:04.948Z,1003.15
2018-02-03T08:56:04.906Z,1003.14
2018-02-03T08:57:04.851Z,1003.09
2018-02-03T08:58:04.805Z,1003.12
2018-02-03T08:59:04.757Z,1003.12
2018-02-03T09:00:04.750Z,1003.11
2018-02-03T09:01:04.663Z,1003.12
2018-02-03T09:02:04.614Z,1003.09
2018-02-03T09:03:04.567Z,1003.09
2018-02-03T09:04:04.519Z,1003.12
2018-02-03T09:05:04.472Z,1003.10
2018-02-03T09:06:04.424Z,1003.09
2018-02-03T09:07:04.374Z,1003.06
2018-02-03T09:08:04.328Z,1003.06
2018-02-03T09:09:04.285Z,1002.99
2018-02-03T09:10:04.236Z,1003.02
2018-02-03T09:11:04.187Z,1003.01
2018-02-03T09:12:04.139Z,1003.01
2018-02-03T09:13:04.096Z,1003.01
2018-02-03T09:14:04.046Z,1002.98
2018-02-03T09:15:04.045Z,1002.96
2018-02-03T09:16:03.949Z,1002.93
2018-02-03T09:17:03.904Z,1002.90
2018-02-03T09:18:03.856Z,1002.91
2018-02-03T09:19:03.811Z,1002.93
2018-02-03T09:20:03.761Z,1002.90
2018-02-03T09:21:03.714Z,1002.92
2018-02-03T09:22:03.665Z,1002.95
2018-02-03T09:23:03.617Z,1002.90
2018-02-03T09:24:03.570Z,1002.93
2018-02-03T09:25:03.524Z,1002.88
2018-02-03T09:26:03.474Z,1002.91
2018-02-03T09:27:03.532Z,1002.86
2018-02-03T09:28:03.382Z,1002.87
2018-02-03T09:29:03.342Z,1002.87
2018-02-03T09:30:03.293Z,1002.89
2018-02-03T09:31:03.242Z,1002.91
2018-02-03T09:32:03.195Z,1002.91
2018-02-03T09:33:03.149Z,1002.93
2018-02-03T09:34:03.107Z,1002.98
2018-02-03T09:35:03.057Z,1002.97
2018-02-03T09:36:03.002Z,1002.99
2018-02-03T09:37:02.955Z,1003.02
2018-02-03T09:38:02.914Z,1003.01
2018-02-03T09:39:02.860Z,1003.05
2018-02-03T09:40:02.813Z,1003.04
2018-02-03T09:41:02.767Z,1003.03
2018-02-03T09:42:02.718Z,1003.07
2018-02-03T09:43:02.673Z,1003.05
2018-02-03T09:44:02.623Z,1003.04
2018-02-03T09:45:02.620Z,1003.05
2018-02-03T09:46:02.532Z,1003.04
2018-02-03T09:47:02.488Z,1003.05
2018-02-03T09:48:02.437Z,1003.04
2018-02-03T09:49:02.389Z,1003.04
2018-02-03T09:50:02.342Z,1003.05
2018-02-03T09:51:02.295Z,1003.02
2018-02-03T09:52:02.247Z,1003.02
2018-02-03T09:53:02.203Z,1003.05
2018-02-03T09:54:02.153Z,1003.04
2018-02-03T09:55:02.110Z,1003.02
2018-02-03T09:56:02.058Z,1002.96
2018-02-03T09:57:02.011Z,1002.98
2018-02-03T09:58:01.965Z,1003.02
2018-02-03T09:59:01.919Z,1002.95
2018-02-03T10:00:01.879Z,1002.97
2018-02-03T10:01:01.824Z,1003.01
2018-02-03T10:02:01.776Z,1003.01
2018-02-03T10:03:01.733Z,1003.00
2018-02-03T10:04:01.682Z,1003.00
2018-02-03T10:05:01.636Z,1003.02
2018-02-03T10:06:01.591Z,1003.00
2018-02-03T10:07:01.541Z,1002.98
2018-02-03T10:08:01.493Z,1002.98
2018-02-03T10:09:01.445Z,1003.00
2018-02-03T10:10:01.406Z,1003.00
2018-02-03T10:11:01.353Z,1002.97
2018-02-03T10:12:01.304Z,1002.96
2018-02-03T10:13:01.258Z,1002.91
2018-02-03T10:14:01.210Z,1002.91
2018-02-03T10:15:01.164Z,1002.89
2018-02-03T10:16:01.121Z,1002.93
2018-02-03T10:17:01.074Z,1002.92
2018-02-03T10:18:01.024Z,1002.91
2018-02-03T10:19:00.979Z,1002.91
2018-02-03T10:20:00.930Z,1002.91
2018-02-03T10:21:00.889Z,1002.92
2018-02-03T10:22:00.844Z,1002.92
2018-02-03T10:23:00.795Z,1002.91
2018-02-03T10:24:00.744Z,1002.86
2018-02-03T10:25:00.698Z,1002.86
2018-02-03T10:26:00.661Z,1002.90
2018-02-03T10:27:00.606Z,1002.89
2018-02-03T10:28:00.574Z,1002.87
2018-02-03T10:29:00.521Z,1002.92
2018-02-03T10:30:00.469Z,1002.87
2018-02-03T10:31:00.424Z,1002.87
2018-02-03T10:32:00.379Z,1002.84
2018-02-03T10:33:00.331Z,1002.80
2018-02-03T10:35:00.235Z,1002.78
2018-02-03T10:36:00.185Z,1002.82
2018-02-03T10:37:00.140Z,1002.78
2018-02-03T10:38:00.096Z,1002.74
2018-02-03T10:39:00.049Z,1002.78
2018-02-03T10:40:00.008Z,1002.77
2018-02-03T10:40:59.961Z,1002.79
2018-02-03T10:41:59.908Z,1002.79
2018-02-03T10:42:59.862Z,1002.82
2018-02-03T10:43:59.814Z,1002.82
2018-02-03T10:44:59.776Z,1002.84
2018-02-03T10:45:59.725Z,1002.83
2018-02-03T10:46:59.676Z,1002.90
2018-02-03T10:47:59.633Z,1002.85
2018-02-03T10:48:59.586Z,1002.92
2018-02-03T10:49:59.541Z,1002.86
2018-02-03T10:50:59.495Z,1002.82
2018-02-03T10:51:59.447Z,1002.83
2018-02-03T10:52:59.398Z,1002.80
2018-02-03T10:53:59.353Z,1002.78
2018-02-03T10:54:59.309Z,1002.79
2018-02-03T10:55:59.261Z,1002.83
2018-02-03T10:56:59.218Z,1002.79
2018-02-03T10:57:59.169Z,1002.79
2018-02-03T10:58:59.120Z,1002.73
2018-02-03T10:59:59.078Z,1002.77
2018-02-03T11:00:59.031Z,1002.78
2018-02-03T11:01:58.984Z,1002.76
2018-02-03T11:02:58.944Z,1002.75
2018-02-03T11:03:58.899Z,1002.79
2018-02-03T11:04:58.849Z,1002.77
2018-02-03T11:05:58.799Z,1002.85
2018-02-03T11:06:58.758Z,1002.79
2018-02-03T11:07:58.705Z,1002.77
2018-02-03T11:08:58.660Z,1002.72
2018-02-03T11:09:58.614Z,1002.76
2018-02-03T11:10:58.566Z,1002.72
2018-02-03T11:11:58.523Z,1002.73
2018-02-03T11:12:58.475Z,1002.68
2018-02-03T11:13:58.432Z,1002.68
2018-02-03T11:14:58.387Z,1002.70
2018-02-03T11:15:58.336Z,1002.69
2018-02-03T11:16:58.289Z,1002.64
2018-02-03T11:17:58.245Z,1002.64
2018-02-03T11:18:58.198Z,1002.68
2018-02-03T11:19:58.151Z,1002.62
2018-02-03T11:20:58.105Z,1002.71
2018-02-03T11:21:58.060Z,1002.62
2018-02-03T11:22:58.019Z,1002.63
2018-02-03T11:23:57.966Z,1002.63
2018-02-03T11:24:57.934Z,1002.62
2018-02-03T11:25:57.874Z,1002.62
2018-02-03T11:26:57.829Z,1002.61
2018-02-03T11:27:57.784Z,1002.61
2018-02-03T11:28:57.734Z,1002.59
2018-02-03T11:29:57.690Z,1002.58
2018-02-03T11:30:57.657Z,1002.61
2018-02-03T11:31:57.596Z,1002.62
2018-02-03T11:32:57.557Z,1002.64
2018-02-03T11:33:57.502Z,1002.59
2018-02-03T11:34:57.457Z,1002.67
2018-02-03T11:35:57.414Z,1002.59
2018-02-03T11:36:57.365Z,1002.59
2018-02-03T11:37:57.320Z,1002.55
2018-02-03T11:38:57.284Z,1002.61
2018-02-03T11:39:57.226Z,1002.59
2018-02-03T11:40:57.178Z,1002.55
2018-02-03T11:41:57.132Z,1002.58
2018-02-03T11:42:57.100Z,1002.55
2018-02-03T11:43:57.040Z,1002.56
2018-02-03T11:44:57.000Z,1002.54
2018-02-03T11:45:56.946Z,1002.65
2018-02-03T11:46:56.910Z,1002.56
2018-02-03T11:47:56.858Z,1002.59
2018-02-03T11:48:56.807Z,1002.56
2018-02-03T11:49:56.762Z,1002.55
2018-02-03T11:51:56.670Z,1002.54
2018-02-03T11:52:56.624Z,1002.46
2018-02-03T11:53:56.577Z,1002.53
2018-02-03T11:54:56.530Z,1002.52
2018-02-03T11:55:56.483Z,1002.47
2018-02-03T11:56:56.437Z,1002.50
2018-02-03T11:57:56.394Z,1002.47
2018-02-03T11:58:56.345Z,1002.47
2018-02-03T11:59:56.299Z,1002.36
2018-02-03T12:00:56.252Z,1002.45
2018-02-03T12:01:56.208Z,1002.44
2018-02-03T12:02:56.165Z,1002.46
2018-02-03T12:03:56.115Z,1002.51
2018-02-03T12:04:56.069Z,1002.45
2018-02-03T12:05:56.060Z,1002.47
2018-02-03T12:06:56.052Z,1002.44
2018-02-03T12:07:56.003Z,1002.40
2018-02-03T12:08:55.975Z,1002.41